Latest Weather Observations for Cooma Airport

IDN60801

Issued at 4:23 pm EDT Tuesday 29 November 2022 (issued every 10 minutes, with the page automatically refreshed every 10 minutes)

About weather observations | Map of weather stations | Latest weather observations for NSW | Other Formats
Station Details ID: 070217 Name: COOMA AIRPORT AWS Lat: -36.29 Lon: 148.97 Height: 930.0 m
Data from the previous 72 hours. | See also: Recent months at Cooma Airport
Date/Time
EDT
Temp
°C
App
Temp
°C
Dew
Point
°C
Rel
Hum
%
Delta-T
°C
Wind Press
QNH
hPa
Press
MSL
hPa
Rain since
9am
mm
Dir  Spd
km/h
Gust
km/h
Spd
kts
Gust
kts
29/04:00pm 18.0 13.7 6.8 48 5.9 S 19 28 10 15 1013.5 1011.0 0.0
29/03:30pm 17.9 13.5 6.7 48 5.8 S 19 26 10 14 1013.6 1011.1 0.0
29/03:00pm 17.7 14.0 6.3 47 5.9 SSW 15 22 8 12 1013.6 1011.1 0.0
29/02:30pm 17.5 14.0 7.3 51 5.4 SSW 15 22 8 12 1013.7 1011.2 0.0
29/02:00pm 16.3 13.3 6.2 51 5.2 S 11 20 6 11 1013.6 1011.1 0.0
29/01:30pm 16.1 12.9 6.8 54 4.8 SW 13 20 7 11 1013.8 1011.3 0.0
29/01:00pm 15.9 12.3 6.9 55 4.7 SW 15 26 8 14 1013.8 1011.3 0.0
29/12:30pm 15.8 11.4 6.5 54 4.8 SSW 19 30 10 16 1013.8 1011.3 0.0
29/12:00pm 14.4 9.5 5.2 54 4.6 S 20 28 11 15 1013.8 1011.3 0.0
29/11:30am 15.2 11.0 8.2 63 3.7 S 20 33 11 18 1013.6 1011.1 0.0
29/11:00am 13.9 8.4 5.8 58 4.0 S 24 33 13 18 1013.3 1010.8 0.0
29/10:30am 14.5 8.2 3.6 48 5.2 SSW 26 35 14 19 1013.3 1010.8 0.0
29/10:00am 14.5 9.8 5.0 53 4.7 SW 19 30 10 16 1012.8 1010.3 0.0
29/09:30am 13.9 7.2 3.7 50 4.9 SSW 28 37 15 20 1012.5 1010.0 0.0
29/09:00am 13.0 6.2 3.1 51 4.6 SSW 28 37 15 20 1012.3 1009.8 0.0
29/08:30am 12.0 4.4 3.0 54 4.2 SW 32 44 17 24 1012.2 1009.7 0.0
29/08:00am 11.8 6.2 3.6 57 3.9 WSW 22 30 12 16 1011.6 1009.1 0.0
29/07:30am 11.0 6.5 4.0 62 3.3 WSW 17 24 9 13 1011.3 1008.8 0.0
29/07:00am 9.6 5.3 3.4 65 2.9 W 15 20 8 11 1010.9 1008.3 0.0
29/06:30am 8.2 3.9 3.1 70 2.3 W 15 24 8 13 1010.5 1008.0 0.0
29/06:00am 6.4 2.3 2.5 76 1.7 WNW 13 17 7 9 1010.4 1007.9 0.0
29/05:30am 6.0 2.2 1.9 75 1.8 W 11 15 6 8 1010.3 1007.8 0.0
29/05:00am 6.9 2.4 2.0 71 2.1 W 15 20 8 11 1010.0 1007.4 0.0
29/04:30am 7.2 2.3 2.3 71 2.1 W 17 26 9 14 1009.8 1007.2 0.0
29/04:00am 7.3 2.5 2.8 73 2.0 W 17 26 9 14 1009.8 1007.2 0.0
29/03:30am 6.9 3.3 2.8 75 1.8 W 11 17 6 9 1009.4 1006.9 0.0
29/03:00am 8.3 4.4 3.4 71 2.2 WNW 13 20 7 11 1009.8 1007.2 0.0
29/02:30am 8.2 4.3 3.3 71 2.2 WNW 13 15 7 8 1009.7 1007.1 0.0
29/02:00am 8.1 2.9 3.6 73 2.1 WNW 20 28 11 15 1009.5 1007.0 0.0
29/01:30am 8.0 2.9 3.1 71 2.2 WNW 19 28 10 15 1009.7 1007.1 0.0
29/01:00am 8.0 2.9 3.3 72 2.1 WNW 19 24 10 13 1009.7 1007.1 0.0
29/12:30am 8.1 3.0 3.9 75 1.9 W 20 30 11 16 1009.9 1007.3 0.0
29/12:00am 5.2 2.9 4.9 98 0.1 NE 6 9 3 5 1009.7 1007.1 0.0
 
Date/Time
EDT
Temp
°C
App
Temp
°C
Dew
Point
°C
Rel
Hum
%
Delta-T
°C
Wind Press
QNH
hPa
Press
MSL
hPa
Rain since
9am
mm
Dir  Spd
km/h
Gust
km/h
Spd
kts
Gust
kts
28/11:30pm 5.6 4.6 5.5 99 0.0 CALM 0 0 0 0 1009.7 1007.1 0.0
28/11:00pm 5.2 2.6 4.3 94 0.4 SSW 7 9 4 5 1009.9 1007.3 0.0
28/10:30pm 6.6 4.5 6.0 96 0.3 S 6 9 3 5 1009.5 1007.0 0.0
28/10:00pm 7.0 4.7 5.8 92 0.6 SW 7 11 4 6 1009.2 1006.7 0.0
28/09:30pm 7.1 4.4 5.7 91 0.7 SW 9 13 5 7 1008.8 1006.2 0.0
28/09:00pm 8.2 5.8 7.1 93 0.5 SSW 9 15 5 8 1008.7 1006.1 0.0
28/08:30pm 9.5 6.5 7.6 88 1.0 WSW 13 17 7 9 1008.7 1006.1 0.0
28/08:00pm 10.9 8.2 7.2 78 1.9 WSW 11 15 6 8 1007.8 1005.2 0.0
28/07:30pm 13.4 10.2 6.7 64 3.4 WSW 13 17 7 9 1007.2 1004.6 0.0
28/07:00pm 15.4 10.8 3.9 46 5.6 W 17 26 9 14 1006.7 1004.1 0.0
28/06:30pm 16.4 11.3 4.1 44 6.0 WSW 20 28 11 15 1006.1 1003.5 0.0
28/06:00pm 17.1 10.7 3.4 40 6.7 WSW 26 35 14 19 1005.7 1003.1 0.0
28/05:30pm 17.2 11.9 2.8 38 6.9 WSW 20 32 11 17 1005.6 1003.0 0.0
28/05:00pm 18.4 13.2 2.7 35 7.6 W 19 32 10 17 1005.4 1002.8 0.0
28/04:30pm 19.0 13.9 4.0 37 7.5 W 20 30 11 16 1005.3 1002.6 0.0
28/04:00pm 19.3 14.8 4.3 37 7.6 W 17 30 9 16 1005.1 1002.4 0.0
28/03:30pm 18.6 12.4 4.4 39 7.1 W 26 37 14 20 1005.3 1002.6 0.0
28/03:18pm 18.8 14.0 5.6 42 6.8 NW 20 56 11 30 1004.9 1002.3 0.0
28/03:00pm 18.8 13.8 4.6 39 7.2 WNW 20 37 11 20 1005.4 1002.8 0.0
28/02:30pm 18.4 13.2 5.6 43 6.6 WNW 22 35 12 19 1005.4 1002.8 0.0
28/02:00pm 18.1 13.3 4.7 41 6.8 NW 19 32 10 17 1005.4 1002.8 0.0
28/01:30pm 17.9 12.3 5.2 43 6.4 NNW 24 35 13 19 1005.5 1002.9 0.0
28/01:00pm 17.5 11.9 3.4 39 6.9 NW 22 35 12 19 1005.6 1003.0 0.0
28/12:30pm 17.6 11.7 3.9 40 6.8 NW 24 39 13 21 1005.6 1003.0 0.0
28/12:00pm 17.3 11.9 2.5 37 7.1 NW 20 33 11 18 1005.8 1003.2 0.0
28/11:30am 16.4 10.8 1.3 36 7.0 NW 20 32 11 17 1006.1 1003.5 0.0
28/11:00am 16.8 10.8 5.1 46 5.9 NNW 26 35 14 19 1006.3 1003.6 0.0
28/10:30am 16.0 10.3 4.7 47 5.6 NW 24 35 13 19 1006.4 1003.8 0.0
28/10:00am 15.2 10.3 4.9 50 5.1 NW 20 30 11 16 1006.6 1004.0 0.0
28/09:30am 14.1 9.3 4.9 54 4.5 NW 19 30 10 16 1006.7 1004.1 0.0
28/09:00am 13.7 9.3 4.6 54 4.4 NW 17 30 9 16 1006.8 1004.2 0.0
28/08:30am 13.0 10.8 9.3 78 2.0 NE 11 17 6 9 1006.9 1004.3 0.0
28/08:13am 11.1 8.4 8.8 86 1.2 NE 13 17 7 9 1006.9 1004.3 0.0
28/08:00am 9.9 7.6 9.0 94 0.5 NE 11 13 6 7 1007.0 1004.4 0.0
28/07:57am 9.7 7.5 9.2 97 0.3 NE 11 13 6 7 1007.0 1004.4 0.0
28/07:41am 9.1 6.4 9.0 99 0.1 NE 13 17 7 9 1006.9 1004.3 0.0
28/07:34am 9.0 6.3 8.9 99 0.1 NE 13 17 7 9 1006.9 1004.3 0.0
28/07:30am 9.0 6.3 8.9 99 0.1 NE 13 15 7 8 1006.8 1004.2 0.0
28/07:00am 8.7 6.7 8.6 99 0.1 NNE 9 11 5 6 1006.7 1004.1 0.0
28/06:40am 8.2 7.0 8.1 99 0.1 NE 4 9 2 5 1006.6 1004.0 0.0
28/06:34am 8.0 7.5 7.9 99 0.1 CALM 0 2 0 1 1006.5 1003.9 0.0
28/06:30am 7.8 6.9 7.7 99 0.0 NE 2 6 1 3 1006.5 1003.9 0.0
28/06:00am 7.4 6.0 7.3 99 0.0 NNE 4 9 2 5 1006.0 1003.4 0.0
28/05:30am 8.9 8.3 8.8 99 0.1 WSW 2 7 1 4 1005.9 1003.3 0.0
28/05:00am 8.7 8.4 8.6 99 0.1 CALM 0 2 0 1 1005.6 1003.0 0.0
28/04:30am 8.4 6.3 8.3 99 0.1 WSW 9 11 5 6 1005.5 1002.9 0.0
28/04:10am 7.5 6.8 7.1 97 0.2 CALM 0 6 0 3 1005.4 1002.8 0.0
28/04:00am 8.1 7.3 8.0 99 0.1 NNW 2 6 1 3 1005.4 1002.8 0.0
28/03:30am 8.6 7.1 8.3 98 0.2 SSW 6 9 3 5 1005.6 1003.0 0.0
28/03:00am 9.1 8.8 8.6 97 0.3 CALM 0 6 0 3 1005.4 1002.8 0.0
28/02:30am 9.8 8.6 9.7 99 0.1 SSW 6 6 3 3 1005.7 1003.1 0.0
28/02:00am 9.9 8.2 9.8 99 0.1 S 9 11 5 6 1005.9 1003.3 0.0
28/01:30am 10.2 9.1 10.1 99 0.1 SW 6 7 3 4 1006.1 1003.5 0.0
28/01:00am 10.1 10.2 10.0 99 0.1 CALM 0 0 0 0 1006.3 1003.6 0.0
28/12:30am 10.3 9.2 10.1 99 0.1 S 6 9 3 5 1006.5 1003.9 0.0
28/12:00am 10.3 7.9 10.1 99 0.1 SSE 13 17 7 9 1006.6 1004.0 0.0
 
Date/Time
EDT
Temp
°C
App
Temp
°C
Dew
Point
°C
Rel
Hum
%
Delta-T
°C
Wind Press
QNH
hPa
Press
MSL
hPa
Rain since
9am
mm
Dir  Spd
km/h
Gust
km/h
Spd
kts
Gust
kts
27/11:30pm 10.5 8.9 10.3 99 0.1 SW 9 13 5 7 1006.4 1003.8 0.0
27/11:00pm 10.4 7.7 10.2 99 0.1 SSE 15 19 8 10 1006.3 1003.6 0.0
27/10:30pm 10.7 7.7 10.5 99 0.1 SSW 17 20 9 11 1006.1 1003.5 0.0
27/10:00pm 11.0 7.7 10.8 99 0.1 SSW 19 24 10 13 1005.9 1003.3 0.0
27/09:30pm 10.9 8.3 10.7 99 0.1 SSW 15 20 8 11 1005.6 1003.0 0.0
27/09:27pm 10.9 7.9 10.7 99 0.1 SW 17 24 9 13 1005.6 1003.0 0.0
27/09:00pm 11.3 7.4 8.7 84 1.4 WSW 19 30 10 16 1004.9 1002.3 0.0
27/08:30pm 15.4 11.0 4.8 49 5.2 WNW 17 28 9 15 1004.3 1001.6 0.0
27/08:00pm 15.7 11.9 5.6 51 5.1 WNW 15 26 8 14 1004.1 1001.4 0.0
27/07:30pm 17.1 11.8 4.8 44 6.2 WNW 22 32 12 17 1003.4 1000.7 0.0
27/07:00pm 18.0 13.0 6.5 47 6.0 WNW 22 30 12 16 1003.0 1000.3 0.0
27/06:30pm 19.8 15.4 7.5 45 6.6 WNW 20 33 11 18 1003.0 1000.3 0.0
27/06:00pm 19.5 14.8 7.9 47 6.3 W 22 32 12 17 1002.6 1000.0 0.0
27/05:30pm 19.7 14.8 7.1 44 6.7 W 22 33 12 18 1002.5 999.9 0.0
27/05:00pm 20.2 14.5 6.9 42 7.1 W 26 43 14 23 1002.8 1000.1 0.0
27/04:30pm 19.7 15.7 8.1 47 6.3 W 19 26 10 14 1002.6 1000.0 0.0
27/04:00pm 20.5 16.9 9.7 50 6.1 WNW 19 32 10 17 1002.6 1000.0 0.0
27/03:30pm 21.4 15.9 9.0 45 6.9 WNW 28 41 15 22 1002.6 1000.0 0.0
27/03:00pm 20.1 15.0 7.8 45 6.7 WNW 24 35 13 19 1002.6 1000.0 0.0
27/02:30pm 21.9 18.2 10.1 47 6.7 WNW 20 32 11 17 1002.9 1000.2 0.0
27/02:00pm 21.8 17.0 9.0 44 7.2 WNW 24 39 13 21 1003.1 1000.4 0.0
27/01:30pm 20.7 13.9 7.7 43 7.0 NW 33 54 18 29 1003.5 1000.9 0.0
27/01:04pm 22.1 15.5 7.9 40 7.8 WNW 32 50 17 27 1003.3 1000.6 0.0
27/01:00pm 22.3 16.1 9.5 44 7.2 WNW 32 48 17 26 1003.2 1000.5 0.0
27/12:53pm 21.7 16.1 8.6 43 7.2 WNW 28 46 15 25 1003.2 1000.5 0.0
27/12:30pm 21.8 16.7 7.6 40 7.7 WNW 24 37 13 20 1003.2 1000.5 0.0
27/12:03pm 21.7 15.6 6.8 38 8.0 WNW 28 50 15 27 1003.4 1000.7 0.0
27/12:00pm 22.8 18.2 9.6 43 7.5 WNW 24 39 13 21 1003.5 1000.9 0.0
27/11:30am 22.6 18.2 9.0 42 7.6 WNW 22 35 12 19 1003.5 1000.9 0.0
27/11:00am 20.8 14.7 6.7 40 7.5 NW 28 48 15 26 1003.8 1001.2 0.0
27/10:59am 21.0 15.1 7.3 41 7.4 NW 28 48 15 26 1003.8 1001.2 0.0
27/10:30am 21.1 16.0 7.7 42 7.3 NW 24 41 13 22 1003.6 1001.0 0.0
27/10:00am 21.6 15.8 9.5 46 6.8 WNW 30 48 16 26 1003.7 1001.1 0.0
27/09:54am 21.4 15.7 8.3 43 7.2 WNW 28 46 15 25 1004.0 1001.3 0.0
27/09:30am 20.7 18.6 11.1 54 5.5 NE 13 22 7 12 1003.8 1001.2 0.0
27/09:00am 17.6 15.7 10.5 63 4.0 NE 11 15 6 8 1004.3 1001.6 0.0
27/08:30am 16.2 13.6 9.2 63 3.8 ENE 13 17 7 9 1004.5 1001.9 0.0
27/08:00am 16.1 14.4 9.8 66 3.5 NNE 9 13 5 7 1004.6 1002.0 0.0
27/07:30am 15.3 13.2 9.7 69 3.1 NNE 11 13 6 7 1004.5 1001.9 0.0
27/07:00am 12.9 10.4 8.0 72 2.6 NE 11 15 6 8 1004.6 1002.0 0.0
27/06:30am 13.1 10.8 7.3 68 3.0 ENE 9 11 5 6 1004.8 1002.2 0.0
27/06:00am 13.6 11.5 6.7 63 3.5 N 7 9 4 5 1004.9 1002.3 0.0
27/05:30am 13.2 11.2 7.2 67 3.1 N 7 9 4 5 1005.3 1002.6 0.0
27/05:00am 13.6 11.1 6.5 62 3.6 N 9 11 5 6 1005.2 1002.5 0.0
27/04:30am 13.9 10.6 6.5 61 3.7 N 13 15 7 8 1005.1 1002.4 0.0
27/04:00am 13.9 10.5 6.0 59 4.0 N 13 15 7 8 1005.3 1002.6 0.0
27/03:30am 14.6 10.6 6.7 59 4.0 NNW 17 20 9 11 1005.6 1003.0 0.0
27/03:00am 13.7 10.7 7.7 67 3.1 NNW 13 17 7 9 1005.8 1003.2 0.0
27/02:30am 11.6 10.7 7.7 77 2.0 N 2 6 1 3 1006.3 1003.6 0.0
27/02:00am 12.2 10.2 7.3 72 2.5 N 7 11 4 6 1006.7 1004.1 0.0
27/01:30am 12.9 11.0 7.4 69 2.8 NNE 7 13 4 7 1007.2 1004.6 0.0
27/01:00am 12.1 9.5 7.6 74 2.3 N 11 13 6 7 1007.6 1005.0 0.0
27/12:30am 12.1 9.4 7.2 72 2.5 ENE 11 15 6 8 1008.0 1005.4 0.0
27/12:00am 11.7 8.2 7.4 75 2.2 NE 15 17 8 9 1008.2 1005.7 0.0
 
Date/Time
EDT
Temp
°C
App
Temp
°C
Dew
Point
°C
Rel
Hum
%
Delta-T
°C
Wind Press
QNH
hPa
Press
MSL
hPa
Rain since
9am
mm
Dir  Spd
km/h
Gust
km/h
Spd
kts
Gust
kts
26/11:30pm 12.9 9.8 7.1 68 3.0 ENE 13 17 7 9 1008.7 1006.1 0.0
26/11:00pm 13.8 10.6 6.9 63 3.5 N 13 19 7 10 1009.1 1006.5 0.0
26/10:30pm 14.4 11.4 7.5 63 3.6 NNW 13 17 7 9 1009.4 1006.9 0.0
26/10:00pm 11.9 10.4 4.9 62 3.4 W 2 7 1 4 1009.9 1007.3 0.0
26/09:30pm 13.1 11.5 4.3 55 4.2 NNE 2 7 1 4 1010.2 1007.7 0.0
26/09:00pm 15.8 12.6 3.3 43 6.0 NW 9 15 5 8 1009.9 1007.3 0.0
26/08:30pm 16.4 12.4 2.8 40 6.5 NW 13 19 7 10 1009.4 1006.9 0.0
26/08:00pm 15.3 12.6 5.5 52 4.9 NW 9 13 5 7 1009.5 1007.0 0.0
26/07:30pm 16.6 13.5 5.6 48 5.6 WNW 11 15 6 8 1009.3 1006.8 0.0
26/07:00pm 20.2 15.8 4.7 36 7.9 NW 17 26 9 14 1009.0 1006.4 0.0
26/06:30pm 20.8 17.0 5.6 37 7.9 NNW 15 20 8 11 1008.8 1006.2 0.0
26/06:00pm 20.7 16.7 5.1 36 8.1 NNE 15 20 8 11 1008.8 1006.2 0.0
26/05:30pm 21.2 17.6 8.5 44 7.0 NE 17 24 9 13 1009.0 1006.4 0.0
26/05:00pm 20.9 17.9 6.1 38 7.8 ENE 11 17 6 9 1009.3 1006.8 0.0
26/04:30pm 22.2 19.7 6.4 36 8.4 ENE 9 13 5 7 1009.7 1007.1 0.0

Other formats

Comma delimited format used in spreadsheet applications
http://www.bom.gov.au/fwo/IDN60801/IDN60801.94921.axf

JavaScript Object Notation format (JSON) in row-major order
http://www.bom.gov.au/fwo/IDN60801/IDN60801.94921.json

Data quality

Most of these data are generated automatically and are frequently updated. Quality checks on data are not normally performed. It is possible for incorrect values to appear. Refer to information at About Latest Weather Observations and please check the disclaimer before using these data.